sensor_id;sensor_type;location;lat;lon;timestamp;pressure;altitude;pressure_sealevel;temperature;humidity
5780;BME280;2916;49.798;10.022;2023-07-31T00:00:18;148537.66;;;17.31;70.12
5780;BME280;2916;49.798;10.022;2023-07-31T00:02:46;148526.44;;;17.26;69.99
5780;BME280;2916;49.798;10.022;2023-07-31T00:05:15;148537.66;;;17.31;69.41
5780;BME280;2916;49.798;10.022;2023-07-31T00:07:42;148542.63;;;17.33;70.10
5780;BME280;2916;49.798;10.022;2023-07-31T00:10:10;148525.22;;;17.26;70.01
5780;BME280;2916;49.798;10.022;2023-07-31T00:12:38;148532.66;;;17.29;70.31
5780;BME280;2916;49.798;10.022;2023-07-31T00:15:07;148536.41;;;17.30;69.66
5780;BME280;2916;49.798;10.022;2023-07-31T00:17:34;148536.41;;;17.30;70.52
5780;BME280;2916;49.798;10.022;2023-07-31T00:20:01;148537.66;;;17.31;70.18
5780;BME280;2916;49.798;10.022;2023-07-31T00:22:30;148532.66;;;17.29;70.30
5780;BME280;2916;49.798;10.022;2023-07-31T00:24:57;148537.66;;;17.31;70.60
5780;BME280;2916;49.798;10.022;2023-07-31T00:27:25;148538.91;;;17.31;70.15
5780;BME280;2916;49.798;10.022;2023-07-31T00:29:52;148530.16;;;17.28;70.52
5780;BME280;2916;49.798;10.022;2023-07-31T00:32:19;148527.69;;;17.27;70.38
5780;BME280;2916;49.798;10.022;2023-07-31T00:34:47;148532.66;;;17.29;70.29
5780;BME280;2916;49.798;10.022;2023-07-31T00:37:14;148520.19;;;17.24;70.59
5780;BME280;2916;49.798;10.022;2023-07-31T00:39:43;148517.72;;;17.23;70.78
5780;BME280;2916;49.798;10.022;2023-07-31T00:42:10;148527.69;;;17.27;70.63
5780;BME280;2916;49.798;10.022;2023-07-31T00:44:37;148515.25;;;17.22;70.89
5780;BME280;2916;49.798;10.022;2023-07-31T00:47:05;148522.69;;;17.25;70.63
5780;BME280;2916;49.798;10.022;2023-07-31T00:49:32;148515.25;;;17.22;70.76
5780;BME280;2916;49.798;10.022;2023-07-31T00:52:00;148517.72;;;17.23;71.32
5780;BME280;2916;49.798;10.022;2023-07-31T00:54:28;148512.72;;;17.21;71.35
5780;BME280;2916;49.798;10.022;2023-07-31T00:56:57;148515.25;;;17.22;71.41
5780;BME280;2916;49.798;10.022;2023-07-31T00:59:24;148502.75;;;17.16;71.51
5780;BME280;2916;49.798;10.022;2023-07-31T01:01:52;148506.50;;;17.18;71.32
5780;BME280;2916;49.798;10.022;2023-07-31T01:04:19;148507.75;;;17.18;71.84
5780;BME280;2916;49.798;10.022;2023-07-31T01:06:55;148507.75;;;17.18;72.01
5780;BME280;2916;49.798;10.022;2023-07-31T01:09:37;148502.75;;;17.16;71.65
5780;BME280;2916;49.798;10.022;2023-07-31T01:12:14;148507.75;;;17.18;72.03
5780;BME280;2916;49.798;10.022;2023-07-31T01:14:51;148503.97;;;17.17;72.05
5780;BME280;2916;49.798;10.022;2023-07-31T01:17:19;148502.75;;;17.16;72.54
5780;BME280;2916;49.798;10.022;2023-07-31T01:19:48;148492.78;;;17.12;72.16
5780;BME280;2916;49.798;10.022;2023-07-31T01:22:31;148490.28;;;17.11;72.17
5780;BME280;2916;49.798;10.022;2023-07-31T01:25:22;148485.28;;;17.09;72.22
5780;BME280;2916;49.798;10.022;2023-07-31T01:28:02;148486.56;;;17.10;72.21
5780;BME280;2916;49.798;10.022;2023-07-31T01:30:36;148471.59;;;17.04;72.50
5780;BME280;2916;49.798;10.022;2023-07-31T01:33:05;148479.06;;;17.07;72.69
5780;BME280;2916;49.798;10.022;2023-07-31T01:35:34;148460.38;;;16.99;72.72
5780;BME280;2916;49.798;10.022;2023-07-31T01:38:01;148455.38;;;16.97;72.95
5780;BME280;2916;49.798;10.022;2023-07-31T01:40:28;148330.72;;;16.46;73.45
5780;BME280;2916;49.798;10.022;2023-07-31T01:42:57;148445.41;;;16.93;73.21
5780;BME280;2916;49.798;10.022;2023-07-31T01:45:24;148447.94;;;16.94;73.53
5780;BME280;2916;49.798;10.022;2023-07-31T01:47:51;148378.06;;;16.65;73.44
5780;BME280;2916;49.798;10.022;2023-07-31T01:50:18;148417.97;;;16.82;73.71
5780;BME280;2916;49.798;10.022;2023-07-31T01:52:45;148423.00;;;16.84;73.69
5780;BME280;2916;49.798;10.022;2023-07-31T01:55:12;148420.50;;;16.83;73.80
5780;BME280;2916;49.798;10.022;2023-07-31T01:57:39;148403.06;;;16.76;73.71
5780;BME280;2916;49.798;10.022;2023-07-31T02:00:09;148420.50;;;16.83;74.03
5780;BME280;2916;49.798;10.022;2023-07-31T02:02:37;148417.97;;;16.82;74.37
5780;BME280;2916;49.798;10.022;2023-07-31T02:05:05;148409.31;;;16.78;73.84
5780;BME280;2916;49.798;10.022;2023-07-31T02:07:32;148409.31;;;16.78;73.96
5780;BME280;2916;49.798;10.022;2023-07-31T02:09:59;148415.50;;;16.81;73.94
5780;BME280;2916;49.798;10.022;2023-07-31T02:12:26;148415.50;;;16.81;74.02
5780;BME280;2916;49.798;10.022;2023-07-31T02:14:56;148405.53;;;16.77;74.16
5780;BME280;2916;49.798;10.022;2023-07-31T02:17:24;148406.78;;;16.77;74.05
5780;BME280;2916;49.798;10.022;2023-07-31T02:19:51;148400.56;;;16.75;74.18
5780;BME280;2916;49.798;10.022;2023-07-31T02:22:19;148400.56;;;16.75;73.96
5780;BME280;2916;49.798;10.022;2023-07-31T02:24:46;148389.28;;;16.70;73.99
5780;BME280;2916;49.798;10.022;2023-07-31T02:27:14;148393.03;;;16.72;74.34
5780;BME280;2916;49.798;10.022;2023-07-31T02:29:41;148380.59;;;16.66;74.36
5780;BME280;2916;49.798;10.022;2023-07-31T02:32:08;148378.06;;;16.65;74.29
5780;BME280;2916;49.798;10.022;2023-07-31T02:34:36;148370.63;;;16.62;74.52
5780;BME280;2916;49.798;10.022;2023-07-31T02:37:04;148364.38;;;16.60;74.78
5780;BME280;2916;49.798;10.022;2023-07-31T02:39:31;148348.16;;;16.53;74.73
5780;BME280;2916;49.798;10.022;2023-07-31T02:41:59;148341.97;;;16.51;75.10
5780;BME280;2916;49.798;10.022;2023-07-31T02:44:27;148325.75;;;16.44;75.36
5780;BME280;2916;49.798;10.022;2023-07-31T02:46:54;148320.75;;;16.42;75.63
5780;BME280;2916;49.798;10.022;2023-07-31T02:49:21;148318.28;;;16.41;76.19
5780;BME280;2916;49.798;10.022;2023-07-31T02:51:50;148310.78;;;16.38;75.71
5780;BME280;2916;49.798;10.022;2023-07-31T02:54:17;148299.59;;;16.33;76.29
5780;BME280;2916;49.798;10.022;2023-07-31T02:56:46;148293.34;;;16.31;76.00
5780;BME280;2916;49.798;10.022;2023-07-31T02:59:13;148290.84;;;16.30;76.47
5780;BME280;2916;49.798;10.022;2023-07-31T03:01:40;148285.91;;;16.28;76.67
5780;BME280;2916;49.798;10.022;2023-07-31T03:04:07;148283.38;;;16.27;76.54
5780;BME280;2916;49.798;10.022;2023-07-31T03:06:34;148280.91;;;16.26;77.02
5780;BME280;2916;49.798;10.022;2023-07-31T03:09:03;148279.66;;;16.25;76.89
5780;BME280;2916;49.798;10.022;2023-07-31T03:11:30;148223.59;;;16.02;76.29
5780;BME280;2916;49.798;10.022;2023-07-31T03:13:57;148288.38;;;16.29;75.98
5780;BME280;2916;49.798;10.022;2023-07-31T03:16:24;148292.09;;;16.30;76.26
5780;BME280;2916;49.798;10.022;2023-07-31T03:18:51;148290.84;;;16.30;76.55
5780;BME280;2916;49.798;10.022;2023-07-31T03:21:18;148305.84;;;16.36;76.51
5780;BME280;2916;49.798;10.022;2023-07-31T03:23:45;148293.34;;;16.31;76.62
5780;BME280;2916;49.798;10.022;2023-07-31T03:26:14;148211.16;;;15.97;76.45
5780;BME280;2916;49.798;10.022;2023-07-31T03:28:41;148304.59;;;16.35;76.35
5780;BME280;2916;49.798;10.022;2023-07-31T03:31:08;148300.81;;;16.34;76.40
5780;BME280;2916;49.798;10.022;2023-07-31T03:33:35;148290.84;;;16.30;76.85
5780;BME280;2916;49.798;10.022;2023-07-31T03:36:03;148300.81;;;16.34;76.67
5780;BME280;2916;49.798;10.022;2023-07-31T03:38:30;148295.88;;;16.32;76.54
5780;BME280;2916;49.798;10.022;2023-07-31T03:40:57;148300.81;;;16.34;76.53
5780;BME280;2916;49.798;10.022;2023-07-31T03:43:26;148300.81;;;16.34;76.38
5780;BME280;2916;49.798;10.022;2023-07-31T03:45:54;148298.34;;;16.33;75.95
5780;BME280;2916;49.798;10.022;2023-07-31T03:48:21;148309.56;;;16.37;76.85
5780;BME280;2916;49.798;10.022;2023-07-31T03:50:48;148303.34;;;16.35;76.27
5780;BME280;2916;49.798;10.022;2023-07-31T03:53:15;148315.78;;;16.40;76.53
5780;BME280;2916;49.798;10.022;2023-07-31T03:55:42;148308.31;;;16.37;76.23
5780;BME280;2916;49.798;10.022;2023-07-31T03:58:09;148318.28;;;16.41;76.14
5780;BME280;2916;49.798;10.022;2023-07-31T04:00:39;148273.41;;;16.23;76.20
5780;BME280;2916;49.798;10.022;2023-07-31T04:03:06;148313.31;;;16.39;76.04
5780;BME280;2916;49.798;10.022;2023-07-31T04:05:38;148315.78;;;16.40;76.54
5780;BME280;2916;49.798;10.022;2023-07-31T04:08:05;148323.28;;;16.43;75.71
5780;BME280;2916;49.798;10.022;2023-07-31T04:10:32;148320.75;;;16.42;76.02
5780;BME280;2916;49.798;10.022;2023-07-31T04:12:59;148333.25;;;16.47;76.02
5780;BME280;2916;49.798;10.022;2023-07-31T04:15:27;148335.72;;;16.48;75.83
5780;BME280;2916;49.798;10.022;2023-07-31T04:17:55;148333.25;;;16.47;75.86
5780;BME280;2916;49.798;10.022;2023-07-31T04:20:22;148335.72;;;16.48;75.39
5780;BME280;2916;49.798;10.022;2023-07-31T04:22:49;148343.22;;;16.51;75.41
5780;BME280;2916;49.798;10.022;2023-07-31T04:25:17;148350.66;;;16.54;75.70
5780;BME280;2916;49.798;10.022;2023-07-31T04:27:44;148354.41;;;16.56;74.90
5780;BME280;2916;49.798;10.022;2023-07-31T04:30:11;148363.13;;;16.59;74.88
5780;BME280;2916;49.798;10.022;2023-07-31T04:32:38;148373.09;;;16.63;75.21
5780;BME280;2916;49.798;10.022;2023-07-31T04:35:07;148373.09;;;16.63;74.54
5780;BME280;2916;49.798;10.022;2023-07-31T04:37:34;148368.09;;;16.61;74.90
5780;BME280;2916;49.798;10.022;2023-07-31T04:40:02;148370.63;;;16.62;75.20
5780;BME280;2916;49.798;10.022;2023-07-31T04:42:29;148373.09;;;16.63;75.02
5780;BME280;2916;49.798;10.022;2023-07-31T04:44:56;148380.59;;;16.66;74.88
5780;BME280;2916;49.798;10.022;2023-07-31T04:47:23;148385.56;;;16.68;74.76
5780;BME280;2916;49.798;10.022;2023-07-31T04:49:50;148388.03;;;16.69;74.28
5780;BME280;2916;49.798;10.022;2023-07-31T04:52:18;148398.06;;;16.74;74.56
5780;BME280;2916;49.798;10.022;2023-07-31T04:54:46;148394.28;;;16.72;74.39
5780;BME280;2916;49.798;10.022;2023-07-31T04:57:13;148413.03;;;16.80;74.61
5780;BME280;2916;49.798;10.022;2023-07-31T04:59:40;148408.00;;;16.78;74.55
5780;BME280;2916;49.798;10.022;2023-07-31T05:02:08;148428.00;;;16.86;74.01
5780;BME280;2916;49.798;10.022;2023-07-31T05:04:35;148441.69;;;16.91;73.76
5780;BME280;2916;49.798;10.022;2023-07-31T05:07:03;148457.91;;;16.98;74.29
5780;BME280;2916;49.798;10.022;2023-07-31T05:09:32;148455.38;;;16.97;74.06
5780;BME280;2916;49.798;10.022;2023-07-31T05:11:59;148462.88;;;17.00;73.80
5780;BME280;2916;49.798;10.022;2023-07-31T05:14:26;148477.84;;;17.06;74.33
5780;BME280;2916;49.798;10.022;2023-07-31T05:16:53;148484.03;;;17.09;73.88
5780;BME280;2916;49.798;10.022;2023-07-31T05:19:20;148477.84;;;17.06;73.84
5780;BME280;2916;49.798;10.022;2023-07-31T05:21:47;148487.81;;;17.10;73.83
5780;BME280;2916;49.798;10.022;2023-07-31T05:24:14;148500.25;;;17.15;73.49
5780;BME280;2916;49.798;10.022;2023-07-31T05:26:43;148531.41;;;17.28;73.37
5780;BME280;2916;49.798;10.022;2023-07-31T05:29:10;148588.75;;;17.52;72.87
5780;BME280;2916;49.798;10.022;2023-07-31T05:31:37;148599.97;;;17.56;72.44
5780;BME280;2916;49.798;10.022;2023-07-31T05:34:05;148641.16;;;17.73;71.65
5780;BME280;2916;49.798;10.022;2023-07-31T05:36:32;148634.91;;;17.71;71.50
5780;BME280;2916;49.798;10.022;2023-07-31T05:38:59;148551.34;;;17.36;71.78
5780;BME280;2916;49.798;10.022;2023-07-31T05:41:26;148583.78;;;17.50;72.33
5780;BME280;2916;49.798;10.022;2023-07-31T05:43:54;148587.50;;;17.51;72.26
5780;BME280;2916;49.798;10.022;2023-07-31T05:46:21;148585.03;;;17.50;72.43
5780;BME280;2916;49.798;10.022;2023-07-31T05:48:49;148587.50;;;17.51;71.68
5780;BME280;2916;49.798;10.022;2023-07-31T05:51:16;148627.41;;;17.67;71.58
5780;BME280;2916;49.798;10.022;2023-07-31T05:53:43;148692.31;;;17.94;71.19
5780;BME280;2916;49.798;10.022;2023-07-31T05:56:10;148717.25;;;18.04;69.68
5780;BME280;2916;49.798;10.022;2023-07-31T05:58:37;148759.66;;;18.22;68.79
5780;BME280;2916;49.798;10.022;2023-07-31T06:01:05;148764.66;;;18.24;68.75
5780;BME280;2916;49.798;10.022;2023-07-31T06:03:33;148842.00;;;18.55;68.34
5780;BME280;2916;49.798;10.022;2023-07-31T06:06:00;148904.41;;;18.81;67.45
5780;BME280;2916;49.798;10.022;2023-07-31T06:08:27;148919.41;;;18.87;66.92
5780;BME280;2916;49.798;10.022;2023-07-31T06:10:54;149056.66;;;19.43;65.98
5780;BME280;2916;49.798;10.022;2023-07-31T06:13:21;148976.78;;;19.10;65.93
5780;BME280;2916;49.798;10.022;2023-07-31T06:15:48;148968.06;;;19.07;65.69
5780;BME280;2916;49.798;10.022;2023-07-31T06:18:18;148941.84;;;18.96;65.67
5780;BME280;2916;49.798;10.022;2023-07-31T06:20:45;148894.41;;;18.77;65.96
5780;BME280;2916;49.798;10.022;2023-07-31T06:23:13;148913.13;;;18.84;66.31
5780;BME280;2916;49.798;10.022;2023-07-31T06:25:40;148898.16;;;18.78;66.37
5780;BME280;2916;49.798;10.022;2023-07-31T06:28:07;148869.41;;;18.67;65.80
5780;BME280;2916;49.798;10.022;2023-07-31T06:30:34;148856.94;;;18.61;66.74
5780;BME280;2916;49.798;10.022;2023-07-31T06:33:02;148827.00;;;18.49;67.06
5780;BME280;2916;49.798;10.022;2023-07-31T06:35:30;148869.41;;;18.67;67.09
5780;BME280;2916;49.798;10.022;2023-07-31T06:37:57;148904.41;;;18.81;67.63
5780;BME280;2916;49.798;10.022;2023-07-31T06:40:24;148876.91;;;18.70;66.54
5780;BME280;2916;49.798;10.022;2023-07-31T06:42:51;148792.06;;;18.35;67.10
5780;BME280;2916;49.798;10.022;2023-07-31T06:45:19;148905.63;;;18.81;66.37
5780;BME280;2916;49.798;10.022;2023-07-31T06:47:47;148918.16;;;18.86;67.34
5780;BME280;2916;49.798;10.022;2023-07-31T06:50:15;148946.84;;;18.98;66.69
5780;BME280;2916;49.798;10.022;2023-07-31T06:52:43;148941.84;;;18.96;66.27
5780;BME280;2916;49.798;10.022;2023-07-31T06:55:21;148959.31;;;19.03;66.71
5780;BME280;2916;49.798;10.022;2023-07-31T06:57:50;148936.81;;;18.94;66.35
5780;BME280;2916;49.798;10.022;2023-07-31T07:00:18;148906.88;;;18.82;66.97
5780;BME280;2916;49.798;10.022;2023-07-31T07:02:46;148905.63;;;18.81;67.18
5780;BME280;2916;49.798;10.022;2023-07-31T07:05:15;148900.69;;;18.79;66.97
5780;BME280;2916;49.798;10.022;2023-07-31T07:07:44;148909.41;;;18.83;66.77
5780;BME280;2916;49.798;10.022;2023-07-31T07:10:11;148824.53;;;18.48;66.51
5780;BME280;2916;49.798;10.022;2023-07-31T07:12:38;148954.31;;;19.01;66.91
5780;BME280;2916;49.798;10.022;2023-07-31T07:15:06;148929.38;;;18.91;66.65
5780;BME280;2916;49.798;10.022;2023-07-31T07:17:34;149016.72;;;19.27;65.69
5780;BME280;2916;49.798;10.022;2023-07-31T07:20:01;149069.13;;;19.48;65.02
5780;BME280;2916;49.798;10.022;2023-07-31T07:22:29;149067.88;;;19.48;64.69
5780;BME280;2916;49.798;10.022;2023-07-31T07:24:57;149101.66;;;19.61;65.20
5780;BME280;2916;49.798;10.022;2023-07-31T07:27:25;149081.63;;;19.53;64.62
5780;BME280;2916;49.798;10.022;2023-07-31T07:29:52;149031.69;;;19.33;65.06
5780;BME280;2916;49.798;10.022;2023-07-31T07:32:20;149121.63;;;19.70;64.91
5780;BME280;2916;49.798;10.022;2023-07-31T07:34:48;149004.25;;;19.22;64.36
5780;BME280;2916;49.798;10.022;2023-07-31T07:37:16;149141.59;;;19.78;64.62
5780;BME280;2916;49.798;10.022;2023-07-31T07:39:44;149112.88;;;19.66;64.42
5780;BME280;2916;49.798;10.022;2023-07-31T07:42:12;149117.84;;;19.68;65.00
5780;BME280;2916;49.798;10.022;2023-07-31T07:44:39;149091.63;;;19.57;64.60
5780;BME280;2916;49.798;10.022;2023-07-31T07:47:06;149075.38;;;19.51;64.78
5780;BME280;2916;49.798;10.022;2023-07-31T07:49:34;149024.22;;;19.30;64.78
5780;BME280;2916;49.798;10.022;2023-07-31T07:52:02;149229.00;;;20.14;64.05
5780;BME280;2916;49.798;10.022;2023-07-31T07:54:30;149283.97;;;20.36;63.24
5780;BME280;2916;49.798;10.022;2023-07-31T07:56:58;149408.91;;;20.87;62.52
5780;BME280;2916;49.798;10.022;2023-07-31T07:59:26;149582.66;;;21.58;60.10
5780;BME280;2916;49.798;10.022;2023-07-31T08:01:53;149485.13;;;21.18;60.68
5780;BME280;2916;49.798;10.022;2023-07-31T08:04:20;149471.38;;;21.13;61.61
5780;BME280;2916;49.798;10.022;2023-07-31T08:06:47;149426.38;;;20.94;61.67
5780;BME280;2916;49.798;10.022;2023-07-31T08:09:15;149431.38;;;20.96;62.00
5780;BME280;2916;49.798;10.022;2023-07-31T08:11:42;149408.91;;;20.87;61.72
5780;BME280;2916;49.798;10.022;2023-07-31T08:14:09;149421.41;;;20.92;62.83
5780;BME280;2916;49.798;10.022;2023-07-31T08:16:38;149427.66;;;20.95;62.25
5780;BME280;2916;49.798;10.022;2023-07-31T08:19:05;149352.69;;;20.64;63.21
5780;BME280;2916;49.798;10.022;2023-07-31T08:21:32;149401.41;;;20.84;62.65
5780;BME280;2916;49.798;10.022;2023-07-31T08:23:59;149366.41;;;20.70;62.14
5780;BME280;2916;49.798;10.022;2023-07-31T08:26:27;149421.41;;;20.92;62.26
5780;BME280;2916;49.798;10.022;2023-07-31T08:28:54;149408.91;;;20.87;61.97
5780;BME280;2916;49.798;10.022;2023-07-31T08:31:21;149201.53;;;20.02;63.05
5780;BME280;2916;49.798;10.022;2023-07-31T08:33:49;149340.16;;;20.59;62.90
5780;BME280;2916;49.798;10.022;2023-07-31T08:36:16;149350.16;;;20.63;62.57
5780;BME280;2916;49.798;10.022;2023-07-31T08:38:45;149356.44;;;20.66;63.30
5780;BME280;2916;49.798;10.022;2023-07-31T08:41:12;149377.66;;;20.74;62.29
5780;BME280;2916;49.798;10.022;2023-07-31T08:43:40;149371.44;;;20.72;62.51
5780;BME280;2916;49.798;10.022;2023-07-31T08:46:08;149441.38;;;21.00;62.18
5780;BME280;2916;49.798;10.022;2023-07-31T08:48:37;149431.38;;;20.96;63.17
5780;BME280;2916;49.798;10.022;2023-07-31T08:51:06;149446.34;;;21.02;62.30
5780;BME280;2916;49.798;10.022;2023-07-31T08:53:34;149507.59;;;21.27;61.70
5780;BME280;2916;49.798;10.022;2023-07-31T08:56:02;149560.13;;;21.49;61.42
5780;BME280;2916;49.798;10.022;2023-07-31T08:58:32;149536.41;;;21.39;61.40
5780;BME280;2916;49.798;10.022;2023-07-31T09:01:03;149511.34;;;21.29;62.19
5780;BME280;2916;49.798;10.022;2023-07-31T09:03:34;149468.88;;;21.12;61.14
5780;BME280;2916;49.798;10.022;2023-07-31T09:06:04;149430.16;;;20.96;61.04
5780;BME280;2916;49.798;10.022;2023-07-31T09:08:32;149517.59;;;21.31;61.56
5780;BME280;2916;49.798;10.022;2023-07-31T09:11:01;149642.63;;;21.83;60.71
5780;BME280;2916;49.798;10.022;2023-07-31T09:13:30;149618.84;;;21.73;60.19
5780;BME280;2916;49.798;10.022;2023-07-31T09:15:58;149598.84;;;21.65;60.36
5780;BME280;2916;49.798;10.022;2023-07-31T09:18:25;149796.44;;;22.45;59.83
5780;BME280;2916;49.798;10.022;2023-07-31T09:21:05;149656.34;;;21.88;59.27
5780;BME280;2916;49.798;10.022;2023-07-31T09:23:43;149681.38;;;21.98;59.78
5780;BME280;2916;49.798;10.022;2023-07-31T09:26:11;149786.44;;;22.41;59.31
5780;BME280;2916;49.798;10.022;2023-07-31T09:28:55;149703.88;;;22.08;58.97
5780;BME280;2916;49.798;10.022;2023-07-31T09:31:33;149713.88;;;22.12;59.54
5780;BME280;2916;49.798;10.022;2023-07-31T09:34:05;149730.19;;;22.18;58.51
5780;BME280;2916;49.798;10.022;2023-07-31T09:36:40;149646.38;;;21.84;57.90
5780;BME280;2916;49.798;10.022;2023-07-31T09:39:10;149715.13;;;22.12;58.55
5780;BME280;2916;49.798;10.022;2023-07-31T09:41:41;149924.06;;;22.97;57.99
5780;BME280;2916;49.798;10.022;2023-07-31T09:44:09;150101.78;;;23.70;56.22
5780;BME280;2916;49.798;10.022;2023-07-31T09:46:37;150086.69;;;23.64;56.27
5780;BME280;2916;49.798;10.022;2023-07-31T09:49:08;150029.13;;;23.40;54.13
5780;BME280;2916;49.798;10.022;2023-07-31T09:51:38;149934.06;;;23.01;54.56
5780;BME280;2916;49.798;10.022;2023-07-31T09:54:13;150037.91;;;23.44;55.23
5780;BME280;2916;49.798;10.022;2023-07-31T09:56:43;149921.56;;;22.96;56.66
5780;BME280;2916;49.798;10.022;2023-07-31T09:59:15;149936.53;;;23.02;55.61
5780;BME280;2916;49.798;10.022;2023-07-31T10:01:45;149985.34;;;23.22;56.28
5780;BME280;2916;49.798;10.022;2023-07-31T10:04:14;149979.09;;;23.20;56.60
5780;BME280;2916;49.798;10.022;2023-07-31T10:06:45;149896.47;;;22.86;56.11
5780;BME280;2916;49.798;10.022;2023-07-31T10:09:18;149767.69;;;22.34;56.82
5780;BME280;2916;49.798;10.022;2023-07-31T10:11:53;149723.91;;;22.16;57.42
5780;BME280;2916;49.798;10.022;2023-07-31T10:14:24;149826.47;;;22.58;57.03
5780;BME280;2916;49.798;10.022;2023-07-31T10:16:53;150047.91;;;23.48;55.71
5780;BME280;2916;49.798;10.022;2023-07-31T10:19:21;149917.78;;;22.95;56.04
5780;BME280;2916;49.798;10.022;2023-07-31T10:21:51;149939.09;;;23.03;56.58
5780;BME280;2916;49.798;10.022;2023-07-31T10:24:19;149878.97;;;22.79;55.91
5780;BME280;2916;49.798;10.022;2023-07-31T10:26:48;149818.94;;;22.54;56.97
5780;BME280;2916;49.798;10.022;2023-07-31T10:29:18;149746.44;;;22.25;58.31
5780;BME280;2916;49.798;10.022;2023-07-31T10:31:47;149825.22;;;22.57;57.62
5780;BME280;2916;49.798;10.022;2023-07-31T10:34:16;149808.94;;;22.50;57.21
5780;BME280;2916;49.798;10.022;2023-07-31T10:36:43;149783.97;;;22.40;57.86
5780;BME280;2916;49.798;10.022;2023-07-31T10:39:36;149812.72;;;22.52;57.75
5780;BME280;2916;49.798;10.022;2023-07-31T10:42:12;149811.44;;;22.51;57.77
5780;BME280;2916;49.798;10.022;2023-07-31T10:44:44;149656.34;;;21.88;57.69
5780;BME280;2916;49.798;10.022;2023-07-31T10:47:15;149866.47;;;22.74;56.87
5780;BME280;2916;49.798;10.022;2023-07-31T10:49:45;149914.06;;;22.93;56.45
5780;BME280;2916;49.798;10.022;2023-07-31T10:52:19;149979.09;;;23.20;55.95
5780;BME280;2916;49.798;10.022;2023-07-31T10:54:50;149906.50;;;22.90;56.91
5780;BME280;2916;49.798;10.022;2023-07-31T10:57:37;150016.63;;;23.35;55.72
5780;BME280;2916;49.798;10.022;2023-07-31T11:00:20;149920.31;;;22.96;55.81
5780;BME280;2916;49.798;10.022;2023-07-31T11:02:59;149961.59;;;23.13;55.85
5780;BME280;2916;49.798;10.022;2023-07-31T11:05:50;149951.56;;;23.09;55.50
5780;BME280;2916;49.798;10.022;2023-07-31T11:08:22;149806.47;;;22.49;55.11
5780;BME280;2916;49.798;10.022;2023-07-31T11:11:04;150089.19;;;23.65;54.46
5780;BME280;2916;49.798;10.022;2023-07-31T11:13:39;150228.19;;;24.21;53.24
5780;BME280;2916;49.798;10.022;2023-07-31T11:16:07;150221.91;;;24.19;52.78
5780;BME280;2916;49.798;10.022;2023-07-31T11:18:34;150124.28;;;23.79;53.73
5780;BME280;2916;49.798;10.022;2023-07-31T11:21:02;150261.94;;;24.35;52.88
5780;BME280;2916;49.798;10.022;2023-07-31T11:23:30;150164.31;;;23.95;52.56
5780;BME280;2916;49.798;10.022;2023-07-31T11:26:00;150091.78;;;23.66;52.46
5780;BME280;2916;49.798;10.022;2023-07-31T11:28:32;150069.16;;;23.57;54.96
5780;BME280;2916;49.798;10.022;2023-07-31T11:31:01;150101.78;;;23.70;53.21
5780;BME280;2916;49.798;10.022;2023-07-31T11:33:28;150118.00;;;23.76;52.45
5780;BME280;2916;49.798;10.022;2023-07-31T11:35:56;150249.44;;;24.30;52.84
5780;BME280;2916;49.798;10.022;2023-07-31T11:38:25;150114.28;;;23.75;52.81
5780;BME280;2916;49.798;10.022;2023-07-31T11:40:54;150185.59;;;24.04;51.78
5780;BME280;2916;49.798;10.022;2023-07-31T11:43:23;150176.81;;;24.00;52.49
5780;BME280;2916;49.798;10.022;2023-07-31T11:45:55;150191.88;;;24.07;51.61
5780;BME280;2916;49.798;10.022;2023-07-31T11:48:24;150139.28;;;23.85;52.01
5780;BME280;2916;49.798;10.022;2023-07-31T11:50:54;150176.81;;;24.00;53.10
5780;BME280;2916;49.798;10.022;2023-07-31T11:53:26;150118.00;;;23.76;52.21
5780;BME280;2916;49.798;10.022;2023-07-31T11:55:57;150077.94;;;23.60;52.36
5780;BME280;2916;49.798;10.022;2023-07-31T11:58:27;150231.91;;;24.23;52.42
5780;BME280;2916;49.798;10.022;2023-07-31T12:00:55;150199.38;;;24.10;53.93
5780;BME280;2916;49.798;10.022;2023-07-31T12:03:24;150244.41;;;24.28;51.82
5780;BME280;2916;49.798;10.022;2023-07-31T12:05:53;150303.28;;;24.52;52.41
5780;BME280;2916;49.798;10.022;2023-07-31T12:08:22;150244.41;;;24.28;52.09
5780;BME280;2916;49.798;10.022;2023-07-31T12:10:51;150206.84;;;24.13;52.01
5780;BME280;2916;49.798;10.022;2023-07-31T12:13:22;150389.69;;;24.87;52.06
5780;BME280;2916;49.798;10.022;2023-07-31T12:15:55;150312.06;;;24.56;51.78
5780;BME280;2916;49.798;10.022;2023-07-31T12:18:24;150323.38;;;24.60;50.86
5780;BME280;2916;49.798;10.022;2023-07-31T12:20:55;150344.63;;;24.69;50.33
5780;BME280;2916;49.798;10.022;2023-07-31T12:23:25;150373.44;;;24.81;51.09
5780;BME280;2916;49.798;10.022;2023-07-31T12:26:00;150235.66;;;24.24;51.27
5780;BME280;2916;49.798;10.022;2023-07-31T12:28:28;150214.38;;;24.16;51.83
5780;BME280;2916;49.798;10.022;2023-07-31T12:31:00;150105.50;;;23.71;51.57
5780;BME280;2916;49.798;10.022;2023-07-31T12:33:32;150116.78;;;23.76;52.27
5780;BME280;2916;49.798;10.022;2023-07-31T12:36:02;150074.19;;;23.59;51.88
5780;BME280;2916;49.798;10.022;2023-07-31T12:38:30;150194.34;;;24.08;53.28
5780;BME280;2916;49.798;10.022;2023-07-31T12:40:57;150204.38;;;24.12;50.74
5780;BME280;2916;49.798;10.022;2023-07-31T12:43:25;150106.75;;;23.72;51.71
5780;BME280;2916;49.798;10.022;2023-07-31T12:45:55;150214.38;;;24.16;50.63
5780;BME280;2916;49.798;10.022;2023-07-31T12:48:23;150224.41;;;24.20;51.56
5780;BME280;2916;49.798;10.022;2023-07-31T12:50:51;150304.59;;;24.53;50.23
5780;BME280;2916;49.798;10.022;2023-07-31T12:53:18;150429.78;;;25.04;50.04
5780;BME280;2916;49.798;10.022;2023-07-31T12:55:45;150332.09;;;24.64;50.50
5780;BME280;2916;49.798;10.022;2023-07-31T12:58:13;150115.53;;;23.75;51.51
5780;BME280;2916;49.798;10.022;2023-07-31T13:00:40;150124.28;;;23.79;52.08
5780;BME280;2916;49.798;10.022;2023-07-31T13:03:07;150094.25;;;23.67;52.65
5780;BME280;2916;49.798;10.022;2023-07-31T13:05:36;150199.38;;;24.10;52.81
5780;BME280;2916;49.798;10.022;2023-07-31T13:08:03;150171.84;;;23.98;55.06